sensor_id;sensor_type;location;lat;lon;timestamp;P1;durP1;ratioP1;P2;durP2;ratioP2
19179;SDS011;9722;48.754;8.868;2023-07-20T00:01:25;1.93;;;1.70;;
19179;SDS011;9722;48.754;8.868;2023-07-20T00:04:46;2.40;;;1.60;;
19179;SDS011;9722;48.754;8.868;2023-07-20T00:08:06;1.63;;;1.50;;
19179;SDS011;9722;48.754;8.868;2023-07-20T00:11:27;2.70;;;1.80;;
19179;SDS011;9722;48.754;8.868;2023-07-20T00:14:47;1.70;;;1.60;;
19179;SDS011;9722;48.754;8.868;2023-07-20T00:18:08;1.60;;;1.50;;
19179;SDS011;9722;48.754;8.868;2023-07-20T00:21:28;2.97;;;2.07;;
19179;SDS011;9722;48.754;8.868;2023-07-20T00:24:49;1.87;;;1.73;;
19179;SDS011;9722;48.754;8.868;2023-07-20T00:28:09;1.70;;;1.60;;
19179;SDS011;9722;48.754;8.868;2023-07-20T00:31:30;2.47;;;1.60;;
19179;SDS011;9722;48.754;8.868;2023-07-20T00:34:50;1.90;;;1.60;;
19179;SDS011;9722;48.754;8.868;2023-07-20T00:38:11;2.07;;;1.50;;
19179;SDS011;9722;48.754;8.868;2023-07-20T00:41:31;2.57;;;1.53;;
19179;SDS011;9722;48.754;8.868;2023-07-20T00:44:53;2.20;;;1.80;;
19179;SDS011;9722;48.754;8.868;2023-07-20T00:48:13;4.37;;;1.50;;
19179;SDS011;9722;48.754;8.868;2023-07-20T00:51:34;1.60;;;1.50;;
19179;SDS011;9722;48.754;8.868;2023-07-20T00:54:55;1.87;;;1.77;;
19179;SDS011;9722;48.754;8.868;2023-07-20T00:58:16;1.60;;;1.50;;
19179;SDS011;9722;48.754;8.868;2023-07-20T01:01:37;1.70;;;1.33;;
19179;SDS011;9722;48.754;8.868;2023-07-20T01:04:57;2.93;;;1.70;;
19179;SDS011;9722;48.754;8.868;2023-07-20T01:08:21;1.77;;;1.67;;
19179;SDS011;9722;48.754;8.868;2023-07-20T01:11:51;1.80;;;1.70;;
19179;SDS011;9722;48.754;8.868;2023-07-20T01:15:19;1.50;;;1.40;;
19179;SDS011;9722;48.754;8.868;2023-07-20T01:18:40;1.83;;;1.73;;
19179;SDS011;9722;48.754;8.868;2023-07-20T01:22:05;2.57;;;1.67;;
19179;SDS011;9722;48.754;8.868;2023-07-20T01:25:53;2.33;;;1.67;;
19179;SDS011;9722;48.754;8.868;2023-07-20T01:33:24;2.60;;;1.70;;
19179;SDS011;9722;48.754;8.868;2023-07-20T01:36:46;1.70;;;1.60;;
19179;SDS011;9722;48.754;8.868;2023-07-20T01:40:10;1.50;;;1.40;;
19179;SDS011;9722;48.754;8.868;2023-07-20T01:43:31;1.53;;;1.40;;
19179;SDS011;9722;48.754;8.868;2023-07-20T01:46:52;1.80;;;1.33;;
19179;SDS011;9722;48.754;8.868;2023-07-20T01:50:12;1.63;;;1.40;;
19179;SDS011;9722;48.754;8.868;2023-07-20T01:53:33;1.50;;;1.40;;
19179;SDS011;9722;48.754;8.868;2023-07-20T01:56:54;1.70;;;1.60;;
19179;SDS011;9722;48.754;8.868;2023-07-20T02:00:14;3.33;;;1.33;;
19179;SDS011;9722;48.754;8.868;2023-07-20T02:03:35;1.90;;;1.50;;
19179;SDS011;9722;48.754;8.868;2023-07-20T02:06:55;1.80;;;1.47;;
19179;SDS011;9722;48.754;8.868;2023-07-20T02:10:16;3.00;;;1.50;;
19179;SDS011;9722;48.754;8.868;2023-07-20T02:13:37;1.60;;;1.50;;
19179;SDS011;9722;48.754;8.868;2023-07-20T02:16:57;1.97;;;1.40;;
19179;SDS011;9722;48.754;8.868;2023-07-20T02:20:19;2.63;;;1.50;;
19179;SDS011;9722;48.754;8.868;2023-07-20T02:23:40;1.70;;;1.60;;
19179;SDS011;9722;48.754;8.868;2023-07-20T02:27:01;2.40;;;1.90;;
19179;SDS011;9722;48.754;8.868;2023-07-20T02:30:21;2.53;;;1.60;;
19179;SDS011;9722;48.754;8.868;2023-07-20T02:33:42;2.50;;;1.57;;
19179;SDS011;9722;48.754;8.868;2023-07-20T02:37:03;1.80;;;1.70;;
19179;SDS011;9722;48.754;8.868;2023-07-20T02:40:24;3.13;;;1.87;;
19179;SDS011;9722;48.754;8.868;2023-07-20T02:43:44;1.70;;;1.60;;
19179;SDS011;9722;48.754;8.868;2023-07-20T02:47:05;3.50;;;2.10;;
19179;SDS011;9722;48.754;8.868;2023-07-20T02:50:26;2.80;;;2.00;;
19179;SDS011;9722;48.754;8.868;2023-07-20T02:53:46;1.87;;;1.60;;
19179;SDS011;9722;48.754;8.868;2023-07-20T02:57:07;1.57;;;1.47;;
19179;SDS011;9722;48.754;8.868;2023-07-20T03:00:27;1.90;;;1.80;;
19179;SDS011;9722;48.754;8.868;2023-07-20T03:03:48;2.13;;;1.60;;
19179;SDS011;9722;48.754;8.868;2023-07-20T03:07:09;2.73;;;1.60;;
19179;SDS011;9722;48.754;8.868;2023-07-20T03:10:30;2.87;;;1.70;;
19179;SDS011;9722;48.754;8.868;2023-07-20T03:13:50;1.90;;;1.37;;
19179;SDS011;9722;48.754;8.868;2023-07-20T03:17:11;1.83;;;1.60;;
19179;SDS011;9722;48.754;8.868;2023-07-20T03:20:31;3.70;;;1.60;;
19179;SDS011;9722;48.754;8.868;2023-07-20T03:23:52;2.03;;;1.83;;
19179;SDS011;9722;48.754;8.868;2023-07-20T03:27:13;2.73;;;2.47;;
19179;SDS011;9722;48.754;8.868;2023-07-20T03:30:34;3.03;;;1.93;;
19179;SDS011;9722;48.754;8.868;2023-07-20T03:33:55;2.73;;;1.70;;
19179;SDS011;9722;48.754;8.868;2023-07-20T03:37:16;2.43;;;1.73;;
19179;SDS011;9722;48.754;8.868;2023-07-20T03:40:36;2.07;;;1.80;;
19179;SDS011;9722;48.754;8.868;2023-07-20T03:43:57;1.73;;;1.57;;
19179;SDS011;9722;48.754;8.868;2023-07-20T03:47:17;3.87;;;1.90;;
19179;SDS011;9722;48.754;8.868;2023-07-20T03:50:38;2.50;;;2.20;;
19179;SDS011;9722;48.754;8.868;2023-07-20T03:53:58;2.47;;;2.03;;
19179;SDS011;9722;48.754;8.868;2023-07-20T03:57:19;3.87;;;1.80;;
19179;SDS011;9722;48.754;8.868;2023-07-20T04:00:40;5.23;;;2.20;;
19179;SDS011;9722;48.754;8.868;2023-07-20T04:04:05;1.53;;;1.43;;
19179;SDS011;9722;48.754;8.868;2023-07-20T04:07:27;1.90;;;1.70;;
19179;SDS011;9722;48.754;8.868;2023-07-20T04:10:47;3.47;;;2.00;;
19179;SDS011;9722;48.754;8.868;2023-07-20T04:14:08;2.13;;;2.00;;
19179;SDS011;9722;48.754;8.868;2023-07-20T04:17:28;2.20;;;2.00;;
19179;SDS011;9722;48.754;8.868;2023-07-20T04:20:49;2.03;;;1.80;;
19179;SDS011;9722;48.754;8.868;2023-07-20T04:24:09;1.80;;;1.70;;
19179;SDS011;9722;48.754;8.868;2023-07-20T04:27:30;2.27;;;1.80;;
19179;SDS011;9722;48.754;8.868;2023-07-20T04:30:50;2.27;;;1.73;;
19179;SDS011;9722;48.754;8.868;2023-07-20T04:34:12;2.97;;;2.07;;
19179;SDS011;9722;48.754;8.868;2023-07-20T04:37:32;2.03;;;1.50;;
19179;SDS011;9722;48.754;8.868;2023-07-20T04:40:53;2.10;;;1.60;;
19179;SDS011;9722;48.754;8.868;2023-07-20T04:44:14;3.60;;;2.13;;
19179;SDS011;9722;48.754;8.868;2023-07-20T04:47:34;3.63;;;1.90;;
19179;SDS011;9722;48.754;8.868;2023-07-20T04:50:55;2.03;;;1.70;;
19179;SDS011;9722;48.754;8.868;2023-07-20T04:54:15;3.63;;;1.90;;
19179;SDS011;9722;48.754;8.868;2023-07-20T04:57:37;2.63;;;2.30;;
19179;SDS011;9722;48.754;8.868;2023-07-20T05:00:57;2.33;;;2.13;;
19179;SDS011;9722;48.754;8.868;2023-07-20T05:04:18;2.00;;;1.70;;
19179;SDS011;9722;48.754;8.868;2023-07-20T05:07:38;1.80;;;1.70;;
19179;SDS011;9722;48.754;8.868;2023-07-20T05:11:02;2.30;;;2.10;;
19179;SDS011;9722;48.754;8.868;2023-07-20T05:14:22;1.87;;;1.60;;
19179;SDS011;9722;48.754;8.868;2023-07-20T05:17:43;2.43;;;2.10;;
19179;SDS011;9722;48.754;8.868;2023-07-20T05:21:05;4.50;;;2.77;;
19179;SDS011;9722;48.754;8.868;2023-07-20T05:24:26;2.30;;;2.10;;
19179;SDS011;9722;48.754;8.868;2023-07-20T05:27:46;3.23;;;2.00;;
19179;SDS011;9722;48.754;8.868;2023-07-20T05:31:07;2.00;;;1.90;;
19179;SDS011;9722;48.754;8.868;2023-07-20T05:34:27;1.83;;;1.73;;
19179;SDS011;9722;48.754;8.868;2023-07-20T05:37:48;2.27;;;2.00;;
19179;SDS011;9722;48.754;8.868;2023-07-20T05:41:08;3.43;;;1.60;;
19179;SDS011;9722;48.754;8.868;2023-07-20T05:44:30;1.73;;;1.47;;
19179;SDS011;9722;48.754;8.868;2023-07-20T05:47:50;4.00;;;1.67;;
19179;SDS011;9722;48.754;8.868;2023-07-20T05:51:11;1.60;;;1.50;;
19179;SDS011;9722;48.754;8.868;2023-07-20T05:54:31;1.50;;;1.40;;
19179;SDS011;9722;48.754;8.868;2023-07-20T05:57:52;2.63;;;1.70;;
19179;SDS011;9722;48.754;8.868;2023-07-20T06:01:14;1.50;;;1.40;;
19179;SDS011;9722;48.754;8.868;2023-07-20T06:04:35;2.83;;;1.63;;
19179;SDS011;9722;48.754;8.868;2023-07-20T06:07:55;1.77;;;1.67;;
19179;SDS011;9722;48.754;8.868;2023-07-20T06:11:17;1.50;;;1.40;;
19179;SDS011;9722;48.754;8.868;2023-07-20T06:14:38;1.83;;;1.70;;
19179;SDS011;9722;48.754;8.868;2023-07-20T06:17:58;1.70;;;1.50;;
19179;SDS011;9722;48.754;8.868;2023-07-20T06:21:19;3.33;;;1.73;;
19179;SDS011;9722;48.754;8.868;2023-07-20T06:24:39;3.50;;;1.63;;
19179;SDS011;9722;48.754;8.868;2023-07-20T06:28:00;3.00;;;1.80;;
19179;SDS011;9722;48.754;8.868;2023-07-20T06:31:20;2.20;;;1.77;;
19179;SDS011;9722;48.754;8.868;2023-07-20T06:34:41;1.67;;;1.57;;
19179;SDS011;9722;48.754;8.868;2023-07-20T06:38:02;2.73;;;1.80;;
19179;SDS011;9722;48.754;8.868;2023-07-20T06:41:23;3.57;;;1.70;;
19179;SDS011;9722;48.754;8.868;2023-07-20T06:44:44;4.07;;;1.60;;
19179;SDS011;9722;48.754;8.868;2023-07-20T06:48:05;2.57;;;1.90;;
19179;SDS011;9722;48.754;8.868;2023-07-20T06:51:26;2.17;;;1.90;;
19179;SDS011;9722;48.754;8.868;2023-07-20T06:54:46;2.73;;;1.80;;
19179;SDS011;9722;48.754;8.868;2023-07-20T06:58:07;2.50;;;1.50;;
19179;SDS011;9722;48.754;8.868;2023-07-20T07:01:27;4.33;;;1.57;;
19179;SDS011;9722;48.754;8.868;2023-07-20T07:04:48;2.00;;;1.53;;
19179;SDS011;9722;48.754;8.868;2023-07-20T07:08:08;2.43;;;1.47;;
19179;SDS011;9722;48.754;8.868;2023-07-20T07:11:29;2.00;;;1.60;;
19179;SDS011;9722;48.754;8.868;2023-07-20T07:14:50;1.70;;;1.50;;
19179;SDS011;9722;48.754;8.868;2023-07-20T07:18:10;4.80;;;1.73;;
19179;SDS011;9722;48.754;8.868;2023-07-20T07:21:31;3.00;;;1.67;;
19179;SDS011;9722;48.754;8.868;2023-07-20T07:24:51;2.43;;;1.50;;
19179;SDS011;9722;48.754;8.868;2023-07-20T07:28:12;1.60;;;1.50;;
19179;SDS011;9722;48.754;8.868;2023-07-20T07:31:33;3.93;;;1.60;;
19179;SDS011;9722;48.754;8.868;2023-07-20T07:34:55;3.77;;;1.80;;
19179;SDS011;9722;48.754;8.868;2023-07-20T07:38:18;1.70;;;1.60;;
19179;SDS011;9722;48.754;8.868;2023-07-20T07:41:39;2.27;;;2.07;;
19179;SDS011;9722;48.754;8.868;2023-07-20T07:45:00;1.70;;;1.60;;
19179;SDS011;9722;48.754;8.868;2023-07-20T07:48:21;3.00;;;1.50;;
19179;SDS011;9722;48.754;8.868;2023-07-20T07:51:42;3.87;;;1.80;;
19179;SDS011;9722;48.754;8.868;2023-07-20T07:55:02;1.50;;;1.40;;
19179;SDS011;9722;48.754;8.868;2023-07-20T07:58:24;1.53;;;1.33;;
19179;SDS011;9722;48.754;8.868;2023-07-20T08:01:44;3.87;;;1.50;;
19179;SDS011;9722;48.754;8.868;2023-07-20T08:05:05;1.53;;;1.30;;
19179;SDS011;9722;48.754;8.868;2023-07-20T08:08:25;1.80;;;1.47;;
19179;SDS011;9722;48.754;8.868;2023-07-20T08:11:46;1.63;;;1.50;;
19179;SDS011;9722;48.754;8.868;2023-07-20T08:15:10;1.93;;;1.60;;
19179;SDS011;9722;48.754;8.868;2023-07-20T08:18:31;2.70;;;1.37;;
19179;SDS011;9722;48.754;8.868;2023-07-20T08:21:52;2.90;;;1.70;;
19179;SDS011;9722;48.754;8.868;2023-07-20T08:25:12;1.60;;;1.50;;
19179;SDS011;9722;48.754;8.868;2023-07-20T08:28:33;2.40;;;1.33;;
19179;SDS011;9722;48.754;8.868;2023-07-20T08:31:54;2.00;;;1.90;;
19179;SDS011;9722;48.754;8.868;2023-07-20T08:35:14;4.10;;;1.30;;
19179;SDS011;9722;48.754;8.868;2023-07-20T08:38:35;1.30;;;1.10;;
19179;SDS011;9722;48.754;8.868;2023-07-20T08:41:57;1.47;;;1.03;;
19179;SDS011;9722;48.754;8.868;2023-07-20T08:45:24;1.20;;;1.10;;
19179;SDS011;9722;48.754;8.868;2023-07-20T08:48:47;4.07;;;1.20;;
19179;SDS011;9722;48.754;8.868;2023-07-20T08:52:08;1.13;;;0.97;;
19179;SDS011;9722;48.754;8.868;2023-07-20T08:55:29;1.93;;;1.30;;
19179;SDS011;9722;48.754;8.868;2023-07-20T08:58:54;1.80;;;1.40;;
19179;SDS011;9722;48.754;8.868;2023-07-20T09:02:16;1.30;;;1.10;;
19179;SDS011;9722;48.754;8.868;2023-07-20T09:05:38;1.20;;;1.10;;
19179;SDS011;9722;48.754;8.868;2023-07-20T09:09:00;1.60;;;1.50;;
19179;SDS011;9722;48.754;8.868;2023-07-20T09:12:20;1.47;;;1.10;;
19179;SDS011;9722;48.754;8.868;2023-07-20T09:15:47;1.43;;;1.33;;
19179;SDS011;9722;48.754;8.868;2023-07-20T09:19:12;1.83;;;1.10;;
19179;SDS011;9722;48.754;8.868;2023-07-20T09:22:35;1.70;;;1.60;;
19179;SDS011;9722;48.754;8.868;2023-07-20T09:25:59;1.67;;;1.57;;
19179;SDS011;9722;48.754;8.868;2023-07-20T09:29:20;1.73;;;1.20;;
19179;SDS011;9722;48.754;8.868;2023-07-20T09:32:45;1.33;;;0.90;;
19179;SDS011;9722;48.754;8.868;2023-07-20T09:36:09;1.57;;;1.17;;
19179;SDS011;9722;48.754;8.868;2023-07-20T09:39:31;1.00;;;0.90;;
19179;SDS011;9722;48.754;8.868;2023-07-20T09:42:52;2.20;;;1.20;;
19179;SDS011;9722;48.754;8.868;2023-07-20T09:46:20;1.10;;;1.00;;
19179;SDS011;9722;48.754;8.868;2023-07-20T09:49:40;3.37;;;2.83;;
19179;SDS011;9722;48.754;8.868;2023-07-20T09:53:01;1.40;;;1.10;;
19179;SDS011;9722;48.754;8.868;2023-07-20T09:56:22;1.50;;;1.33;;
19179;SDS011;9722;48.754;8.868;2023-07-20T09:59:44;1.07;;;1.03;;
19179;SDS011;9722;48.754;8.868;2023-07-20T10:03:05;0.80;;;0.80;;
19179;SDS011;9722;48.754;8.868;2023-07-20T10:06:26;1.33;;;1.10;;
19179;SDS011;9722;48.754;8.868;2023-07-20T10:09:48;2.27;;;1.10;;
19179;SDS011;9722;48.754;8.868;2023-07-20T10:13:19;1.00;;;0.80;;
19179;SDS011;9722;48.754;8.868;2023-07-20T10:16:51;0.90;;;0.90;;
19179;SDS011;9722;48.754;8.868;2023-07-20T10:20:18;2.57;;;0.90;;
19179;SDS011;9722;48.754;8.868;2023-07-20T10:23:41;2.47;;;1.07;;
19179;SDS011;9722;48.754;8.868;2023-07-20T10:27:01;2.40;;;1.00;;
19179;SDS011;9722;48.754;8.868;2023-07-20T10:30:22;0.80;;;0.80;;
19179;SDS011;9722;48.754;8.868;2023-07-20T10:33:44;1.23;;;0.80;;
19179;SDS011;9722;48.754;8.868;2023-07-20T10:37:06;1.63;;;0.80;;
19179;SDS011;9722;48.754;8.868;2023-07-20T10:43:48;0.88;;;0.88;;
19179;SDS011;9722;48.754;8.868;2023-07-20T10:47:09;1.63;;;1.00;;
19179;SDS011;9722;48.754;8.868;2023-07-20T10:50:32;1.10;;;0.88;;
19179;SDS011;9722;48.754;8.868;2023-07-20T10:53:57;0.98;;;0.90;;
19179;SDS011;9722;48.754;8.868;2023-07-20T10:57:22;0.90;;;0.90;;
19179;SDS011;9722;48.754;8.868;2023-07-20T11:00:54;0.90;;;0.90;;
19179;SDS011;9722;48.754;8.868;2023-07-20T11:04:16;0.77;;;0.70;;
19179;SDS011;9722;48.754;8.868;2023-07-20T11:07:40;0.80;;;0.80;;
19179;SDS011;9722;48.754;8.868;2023-07-20T11:11:34;1.10;;;1.00;;
19179;SDS011;9722;48.754;8.868;2023-07-20T11:14:54;0.90;;;0.90;;
19179;SDS011;9722;48.754;8.868;2023-07-20T11:18:16;1.08;;;0.75;;
19179;SDS011;9722;48.754;8.868;2023-07-20T11:21:37;1.05;;;0.82;;
19179;SDS011;9722;48.754;8.868;2023-07-20T11:25:01;2.10;;;0.75;;
19179;SDS011;9722;48.754;8.868;2023-07-20T11:28:21;1.15;;;0.80;;
19179;SDS011;9722;48.754;8.868;2023-07-20T11:31:42;1.20;;;1.10;;
19179;SDS011;9722;48.754;8.868;2023-07-20T11:35:04;1.95;;;1.70;;
19179;SDS011;9722;48.754;8.868;2023-07-20T11:38:24;1.23;;;1.02;;
19179;SDS011;9722;48.754;8.868;2023-07-20T11:41:49;1.10;;;1.00;;
19179;SDS011;9722;48.754;8.868;2023-07-20T11:45:10;0.80;;;0.80;;
19179;SDS011;9722;48.754;8.868;2023-07-20T11:48:31;1.55;;;0.98;;
19179;SDS011;9722;48.754;8.868;2023-07-20T11:51:51;1.00;;;0.98;;
19179;SDS011;9722;48.754;8.868;2023-07-20T11:55:12;1.23;;;1.10;;
19179;SDS011;9722;48.754;8.868;2023-07-20T11:58:33;1.02;;;1.00;;
19179;SDS011;9722;48.754;8.868;2023-07-20T12:01:53;1.00;;;0.90;;
19179;SDS011;9722;48.754;8.868;2023-07-20T12:05:14;1.15;;;1.08;;
19179;SDS011;9722;48.754;8.868;2023-07-20T12:08:34;1.10;;;1.10;;
19179;SDS011;9722;48.754;8.868;2023-07-20T12:12:03;0.80;;;0.80;;
19179;SDS011;9722;48.754;8.868;2023-07-20T12:15:31;2.33;;;1.33;;
19179;SDS011;9722;48.754;8.868;2023-07-20T12:18:52;0.90;;;0.90;;
19179;SDS011;9722;48.754;8.868;2023-07-20T12:22:39;0.90;;;0.90;;
19179;SDS011;9722;48.754;8.868;2023-07-20T12:26:05;0.80;;;0.80;;
19179;SDS011;9722;48.754;8.868;2023-07-20T12:29:27;0.80;;;0.80;;
19179;SDS011;9722;48.754;8.868;2023-07-20T12:32:47;0.98;;;0.80;;
19179;SDS011;9722;48.754;8.868;2023-07-20T12:36:08;1.10;;;0.80;;
19179;SDS011;9722;48.754;8.868;2023-07-20T12:39:30;1.00;;;1.00;;
19179;SDS011;9722;48.754;8.868;2023-07-20T12:42:51;0.80;;;0.80;;
19179;SDS011;9722;48.754;8.868;2023-07-20T12:46:12;1.10;;;0.90;;
19179;SDS011;9722;48.754;8.868;2023-07-20T12:49:33;0.98;;;0.75;;
19179;SDS011;9722;48.754;8.868;2023-07-20T12:52:53;1.48;;;1.38;;
19179;SDS011;9722;48.754;8.868;2023-07-20T12:56:14;0.80;;;0.80;;
19179;SDS011;9722;48.754;8.868;2023-07-20T12:59:35;1.05;;;0.80;;
19179;SDS011;9722;48.754;8.868;2023-07-20T13:02:56;1.00;;;1.00;;
19179;SDS011;9722;48.754;8.868;2023-07-20T13:06:16;1.08;;;0.90;;
19179;SDS011;9722;48.754;8.868;2023-07-20T13:09:37;0.90;;;0.90;;
19179;SDS011;9722;48.754;8.868;2023-07-20T13:12:57;1.83;;;1.10;;
19179;SDS011;9722;48.754;8.868;2023-07-20T13:16:19;0.93;;;0.93;;
19179;SDS011;9722;48.754;8.868;2023-07-20T13:19:39;1.20;;;0.80;;
19179;SDS011;9722;48.754;8.868;2023-07-20T13:23:00;1.02;;;0.85;;
19179;SDS011;9722;48.754;8.868;2023-07-20T13:26:20;1.30;;;1.10;;
19179;SDS011;9722;48.754;8.868;2023-07-20T13:29:41;1.07;;;0.97;;
19179;SDS011;9722;48.754;8.868;2023-07-20T13:33:02;1.55;;;0.90;;
19179;SDS011;9722;48.754;8.868;2023-07-20T13:36:22;0.77;;;0.70;;
19179;SDS011;9722;48.754;8.868;2023-07-20T13:39:43;1.10;;;1.00;;
19179;SDS011;9722;48.754;8.868;2023-07-20T13:43:03;1.13;;;1.03;;
19179;SDS011;9722;48.754;8.868;2023-07-20T13:46:24;1.37;;;1.13;;
19179;SDS011;9722;48.754;8.868;2023-07-20T13:49:45;1.10;;;1.00;;
19179;SDS011;9722;48.754;8.868;2023-07-20T13:53:05;1.23;;;1.10;;
19179;SDS011;9722;48.754;8.868;2023-07-20T13:56:26;0.83;;;0.83;;
19179;SDS011;9722;48.754;8.868;2023-07-20T13:59:47;1.17;;;0.90;;
19179;SDS011;9722;48.754;8.868;2023-07-20T14:03:07;0.77;;;0.77;;
19179;SDS011;9722;48.754;8.868;2023-07-20T14:06:29;0.97;;;0.80;;
19179;SDS011;9722;48.754;8.868;2023-07-20T14:09:51;0.80;;;0.80;;
19179;SDS011;9722;48.754;8.868;2023-07-20T14:13:11;0.80;;;0.80;;
19179;SDS011;9722;48.754;8.868;2023-07-20T14:16:32;1.10;;;1.00;;
19179;SDS011;9722;48.754;8.868;2023-07-20T14:19:53;3.03;;;1.00;;
19179;SDS011;9722;48.754;8.868;2023-07-20T14:23:13;1.10;;;1.00;;
19179;SDS011;9722;48.754;8.868;2023-07-20T14:26:34;1.10;;;1.00;;
19179;SDS011;9722;48.754;8.868;2023-07-20T14:29:55;1.03;;;0.93;;
19179;SDS011;9722;48.754;8.868;2023-07-20T14:33:15;1.50;;;1.40;;
19179;SDS011;9722;48.754;8.868;2023-07-20T14:36:36;1.70;;;1.00;;
19179;SDS011;9722;48.754;8.868;2023-07-20T14:39:56;0.80;;;0.80;;
19179;SDS011;9722;48.754;8.868;2023-07-20T14:43:20;2.40;;;0.97;;
19179;SDS011;9722;48.754;8.868;2023-07-20T14:46:41;1.93;;;0.83;;
19179;SDS011;9722;48.754;8.868;2023-07-20T14:50:02;1.47;;;1.00;;
19179;SDS011;9722;48.754;8.868;2023-07-20T14:53:22;2.20;;;1.00;;
19179;SDS011;9722;48.754;8.868;2023-07-20T14:56:49;2.10;;;1.13;;
19179;SDS011;9722;48.754;8.868;2023-07-20T15:00:14;1.03;;;1.00;;
19179;SDS011;9722;48.754;8.868;2023-07-20T15:03:35;3.67;;;1.20;;
19179;SDS011;9722;48.754;8.868;2023-07-20T15:06:55;1.77;;;1.10;;
19179;SDS011;9722;48.754;8.868;2023-07-20T15:10:16;0.90;;;0.90;;
19179;SDS011;9722;48.754;8.868;2023-07-20T15:13:37;2.30;;;0.97;;
19179;SDS011;9722;48.754;8.868;2023-07-20T15:16:57;1.80;;;1.07;;
19179;SDS011;9722;48.754;8.868;2023-07-20T15:20:18;2.30;;;0.90;;
19179;SDS011;9722;48.754;8.868;2023-07-20T15:23:38;2.20;;;1.00;;
19179;SDS011;9722;48.754;8.868;2023-07-20T15:26:59;1.73;;;1.10;;
19179;SDS011;9722;48.754;8.868;2023-07-20T15:30:19;1.53;;;0.93;;
19179;SDS011;9722;48.754;8.868;2023-07-20T15:33:40;1.13;;;0.90;;
19179;SDS011;9722;48.754;8.868;2023-07-20T15:37:01;2.80;;;1.20;;
19179;SDS011;9722;48.754;8.868;2023-07-20T15:40:22;0.93;;;0.80;;
19179;SDS011;9722;48.754;8.868;2023-07-20T15:43:43;1.87;;;1.00;;
19179;SDS011;9722;48.754;8.868;2023-07-20T15:47:04;0.90;;;0.90;;
19179;SDS011;9722;48.754;8.868;2023-07-20T15:50:26;1.10;;;1.00;;
19179;SDS011;9722;48.754;8.868;2023-07-20T15:53:46;0.97;;;0.97;;
19179;SDS011;9722;48.754;8.868;2023-07-20T15:57:07;1.23;;;0.83;;
19179;SDS011;9722;48.754;8.868;2023-07-20T16:00:28;1.07;;;1.00;;
19179;SDS011;9722;48.754;8.868;2023-07-20T16:03:48;3.43;;;1.07;;
19179;SDS011;9722;48.754;8.868;2023-07-20T16:07:09;1.00;;;1.00;;
19179;SDS011;9722;48.754;8.868;2023-07-20T16:10:29;0.87;;;0.87;;
19179;SDS011;9722;48.754;8.868;2023-07-20T16:13:50;0.80;;;0.80;;
19179;SDS011;9722;48.754;8.868;2023-07-20T16:17:12;1.27;;;0.80;;
19179;SDS011;9722;48.754;8.868;2023-07-20T16:20:32;1.00;;;0.90;;
19179;SDS011;9722;48.754;8.868;2023-07-20T16:23:53;0.80;;;0.80;;
19179;SDS011;9722;48.754;8.868;2023-07-20T16:27:14;1.10;;;1.03;;
19179;SDS011;9722;48.754;8.868;2023-07-20T16:30:34;1.97;;;0.97;;
19179;SDS011;9722;48.754;8.868;2023-07-20T16:33:54;0.90;;;0.90;;
19179;SDS011;9722;48.754;8.868;2023-07-20T16:37:15;0.73;;;0.73;;
19179;SDS011;9722;48.754;8.868;2023-07-20T16:40:36;2.90;;;1.00;;
19179;SDS011;9722;48.754;8.868;2023-07-20T16:43:57;1.00;;;0.80;;
19179;SDS011;9722;48.754;8.868;2023-07-20T16:47:18;0.90;;;0.90;;
19179;SDS011;9722;48.754;8.868;2023-07-20T16:50:41;1.00;;;0.90;;
19179;SDS011;9722;48.754;8.868;2023-07-20T16:54:01;0.93;;;0.73;;
19179;SDS011;9722;48.754;8.868;2023-07-20T16:57:23;3.23;;;1.10;;
19179;SDS011;9722;48.754;8.868;2023-07-20T17:00:45;1.10;;;0.80;;
19179;SDS011;9722;48.754;8.868;2023-07-20T17:04:06;0.90;;;0.90;;
19179;SDS011;9722;48.754;8.868;2023-07-20T17:07:27;1.53;;;1.00;;
19179;SDS011;9722;48.754;8.868;2023-07-20T17:10:47;0.90;;;0.90;;
19179;SDS011;9722;48.754;8.868;2023-07-20T17:14:08;1.60;;;0.80;;
19179;SDS011;9722;48.754;8.868;2023-07-20T17:17:30;1.00;;;0.90;;
19179;SDS011;9722;48.754;8.868;2023-07-20T17:20:51;0.97;;;0.90;;
19179;SDS011;9722;48.754;8.868;2023-07-20T17:24:11;1.53;;;0.93;;
19179;SDS011;9722;48.754;8.868;2023-07-20T17:27:32;3.00;;;1.00;;
19179;SDS011;9722;48.754;8.868;2023-07-20T17:30:56;1.23;;;1.10;;
19179;SDS011;9722;48.754;8.868;2023-07-20T17:34:20;1.00;;;1.00;;
19179;SDS011;9722;48.754;8.868;2023-07-20T17:37:40;1.67;;;1.10;;
19179;SDS011;9722;48.754;8.868;2023-07-20T17:41:02;0.90;;;0.90;;
19179;SDS011;9722;48.754;8.868;2023-07-20T17:44:22;0.90;;;0.80;;
19179;SDS011;9722;48.754;8.868;2023-07-20T17:47:43;3.03;;;1.00;;
19179;SDS011;9722;48.754;8.868;2023-07-20T17:51:03;1.90;;;1.00;;
19179;SDS011;9722;48.754;8.868;2023-07-20T17:54:24;1.90;;;0.80;;
19179;SDS011;9722;48.754;8.868;2023-07-20T17:57:45;1.10;;;1.00;;
19179;SDS011;9722;48.754;8.868;2023-07-20T18:01:06;1.37;;;1.10;;
19179;SDS011;9722;48.754;8.868;2023-07-20T18:04:27;1.90;;;0.90;;
19179;SDS011;9722;48.754;8.868;2023-07-20T18:07:47;1.17;;;1.07;;
19179;SDS011;9722;48.754;8.868;2023-07-20T18:11:08;2.03;;;1.00;;
19179;SDS011;9722;48.754;8.868;2023-07-20T18:14:31;2.40;;;1.33;;
19179;SDS011;9722;48.754;8.868;2023-07-20T18:17:52;2.93;;;2.33;;
19179;SDS011;9722;48.754;8.868;2023-07-20T18:21:12;1.53;;;1.43;;
19179;SDS011;9722;48.754;8.868;2023-07-20T18:24:33;1.23;;;1.13;;
19179;SDS011;9722;48.754;8.868;2023-07-20T18:27:53;1.50;;;1.40;;
19179;SDS011;9722;48.754;8.868;2023-07-20T18:31:14;1.10;;;0.90;;
19179;SDS011;9722;48.754;8.868;2023-07-20T18:34:34;1.23;;;1.00;;
19179;SDS011;9722;48.754;8.868;2023-07-20T18:37:55;1.27;;;1.17;;
19179;SDS011;9722;48.754;8.868;2023-07-20T18:41:16;0.90;;;0.90;;
19179;SDS011;9722;48.754;8.868;2023-07-20T18:44:37;1.20;;;1.10;;
19179;SDS011;9722;48.754;8.868;2023-07-20T18:47:57;1.20;;;1.10;;
19179;SDS011;9722;48.754;8.868;2023-07-20T18:51:18;0.90;;;0.90;;
19179;SDS011;9722;48.754;8.868;2023-07-20T18:54:38;1.13;;;0.90;;
19179;SDS011;9722;48.754;8.868;2023-07-20T18:57:59;1.10;;;1.00;;
19179;SDS011;9722;48.754;8.868;2023-07-20T19:01:20;1.07;;;0.97;;
19179;SDS011;9722;48.754;8.868;2023-07-20T19:04:40;1.60;;;1.20;;
19179;SDS011;9722;48.754;8.868;2023-07-20T19:08:01;1.50;;;1.00;;
19179;SDS011;9722;48.754;8.868;2023-07-20T19:11:22;1.27;;;1.20;;
19179;SDS011;9722;48.754;8.868;2023-07-20T19:14:43;1.43;;;1.10;;
19179;SDS011;9722;48.754;8.868;2023-07-20T19:18:03;1.70;;;1.53;;
19179;SDS011;9722;48.754;8.868;2023-07-20T19:21:25;2.20;;;2.00;;
19179;SDS011;9722;48.754;8.868;2023-07-20T19:24:46;2.13;;;1.93;;
19179;SDS011;9722;48.754;8.868;2023-07-20T19:28:06;1.40;;;1.30;;
19179;SDS011;9722;48.754;8.868;2023-07-20T19:31:27;2.30;;;1.40;;
19179;SDS011;9722;48.754;8.868;2023-07-20T19:34:47;1.33;;;1.13;;
19179;SDS011;9722;48.754;8.868;2023-07-20T19:38:09;1.47;;;1.03;;
19179;SDS011;9722;48.754;8.868;2023-07-20T19:41:30;2.80;;;1.17;;
19179;SDS011;9722;48.754;8.868;2023-07-20T19:44:51;3.23;;;1.30;;
19179;SDS011;9722;48.754;8.868;2023-07-20T19:48:11;1.37;;;1.27;;
19179;SDS011;9722;48.754;8.868;2023-07-20T19:51:32;2.87;;;0.90;;
19179;SDS011;9722;48.754;8.868;2023-07-20T19:54:52;4.30;;;1.50;;
19179;SDS011;9722;48.754;8.868;2023-07-20T19:58:13;1.43;;;1.30;;
19179;SDS011;9722;48.754;8.868;2023-07-20T20:01:34;1.37;;;1.23;;
19179;SDS011;9722;48.754;8.868;2023-07-20T20:04:54;3.17;;;1.20;;
19179;SDS011;9722;48.754;8.868;2023-07-20T20:08:15;2.10;;;1.10;;
19179;SDS011;9722;48.754;8.868;2023-07-20T20:11:35;1.47;;;1.17;;
19179;SDS011;9722;48.754;8.868;2023-07-20T20:14:56;1.37;;;1.27;;
19179;SDS011;9722;48.754;8.868;2023-07-20T20:18:16;2.23;;;1.23;;
19179;SDS011;9722;48.754;8.868;2023-07-20T20:21:37;1.50;;;1.10;;
19179;SDS011;9722;48.754;8.868;2023-07-20T20:24:58;1.23;;;1.07;;
19179;SDS011;9722;48.754;8.868;2023-07-20T20:28:18;2.53;;;1.30;;
19179;SDS011;9722;48.754;8.868;2023-07-20T20:31:39;3.90;;;1.50;;
19179;SDS011;9722;48.754;8.868;2023-07-20T20:34:59;1.20;;;1.10;;
19179;SDS011;9722;48.754;8.868;2023-07-20T20:38:21;1.73;;;1.03;;